Time;durP1;ratioP1;P1;durP2;ratioP2;P2;SDS_P1;SDS_P2;PMS_P1;PMS_P2;Temp;Humidity;BMP_temperature;BMP_pressure;BME280_temperature;BME280_humidity;BME280_pressure;Samples;Min_cycle;Max_cycle;Signal;HPM_P1;HPM_P2
2023/12/11 00:01:09;;;;;;;16.07;3.80;;;10.00;99.90;;;;;;5078607;28;20544;-66
2023/12/11 00:03:36;;;;;;;16.53;4.40;;;9.90;99.90;;;;;;5078767;28;20508;-61
2023/12/11 00:06:04;;;;;;;14.17;4.20;;;10.00;99.90;;;;;;5078264;28;20493;-63
2023/12/11 00:08:33;;;;;;;11.93;3.90;;;9.90;99.90;;;;;;5078296;28;20827;-61
2023/12/11 00:11:01;;;;;;;21.67;5.10;;;9.90;99.90;;;;;;5078458;28;20539;-62
2023/12/11 00:13:29;;;;;;;17.70;5.13;;;9.80;99.90;;;;;;5078887;28;20936;-61
2023/12/11 00:15:57;;;;;;;16.63;4.93;;;9.80;99.90;;;;;;5078632;28;20800;-62
2023/12/11 00:18:24;;;;;;;19.37;6.30;;;9.80;99.90;;;;;;5078165;28;20527;-62
2023/12/11 00:20:51;;;;;;;18.00;5.17;;;9.70;99.90;;;;;;5077935;28;20457;-61
2023/12/11 00:23:19;;;;;;;13.70;5.17;;;9.70;99.90;;;;;;5078351;28;20488;-63
2023/12/11 00:25:47;;;;;;;22.43;5.93;;;9.70;99.90;;;;;;5078436;28;20493;-64
2023/12/11 00:28:14;;;;;;;20.83;5.90;;;9.70;99.90;;;;;;5077841;28;20457;-62
2023/12/11 00:30:42;;;;;;;16.73;5.00;;;9.70;99.90;;;;;;5077832;28;20499;-61
2023/12/11 00:33:10;;;;;;;19.47;5.43;;;9.60;99.90;;;;;;5077518;28;20667;-61
2023/12/11 00:35:37;;;;;;;21.50;4.70;;;9.60;99.90;;;;;;5077909;28;20552;-61
2023/12/11 00:38:04;;;;;;;22.97;5.80;;;9.50;99.90;;;;;;5078013;28;20526;-61
2023/12/11 00:40:32;;;;;;;18.10;4.60;;;9.50;99.90;;;;;;5077626;28;20898;-62
2023/12/11 00:42:59;;;;;;;26.73;6.67;;;9.50;99.90;;;;;;5077783;28;20485;-61
2023/12/11 00:45:27;;;;;;;16.80;5.10;;;9.60;99.90;;;;;;5078000;28;20496;-61
2023/12/11 00:47:56;;;;;;;21.00;5.60;;;9.60;99.90;;;;;;5080395;28;20453;-61
2023/12/11 00:50:23;;;;;;;19.87;5.50;;;9.60;99.90;;;;;;5077683;28;20461;-61
2023/12/11 00:52:50;;;;;;;30.90;6.47;;;9.60;99.90;;;;;;5076500;28;20465;-60
2023/12/11 00:55:17;;;;;;;26.60;5.93;;;9.60;99.90;;;;;;5077736;28;20807;-62
2023/12/11 00:57:45;;;;;;;20.23;6.83;;;9.60;99.90;;;;;;5076575;28;20489;-62
2023/12/11 01:00:13;;;;;;;21.07;5.73;;;9.70;99.90;;;;;;5077495;28;20461;-60
2023/12/11 01:02:42;;;;;;;21.60;7.00;;;9.60;99.90;;;;;;5077423;28;20890;-62
2023/12/11 01:05:11;;;;;;;14.10;4.97;;;9.70;99.90;;;;;;5077100;28;20470;-61
2023/12/11 01:07:38;;;;;;;24.40;6.30;;;9.70;99.90;;;;;;5077478;28;20493;-61
2023/12/11 01:10:06;;;;;;;29.53;6.63;;;9.70;99.90;;;;;;5077318;28;20464;-61
2023/12/11 01:12:34;;;;;;;22.63;5.93;;;9.70;99.90;;;;;;5077585;28;20882;-62
2023/12/11 01:15:01;;;;;;;27.03;6.73;;;9.70;99.90;;;;;;5077067;28;20519;-61
2023/12/11 01:17:29;;;;;;;20.33;6.13;;;9.70;99.90;;;;;;5077628;28;20450;-63
2023/12/11 01:19:56;;;;;;;24.13;6.97;;;9.70;99.90;;;;;;5077974;28;20496;-61
2023/12/11 01:22:24;;;;;;;21.43;5.97;;;9.60;99.90;;;;;;5077394;28;20758;-61
2023/12/11 01:24:52;;;;;;;20.07;5.37;;;9.70;99.90;;;;;;5077493;28;20489;-62
2023/12/11 01:27:19;;;;;;;22.10;5.37;;;9.70;99.90;;;;;;5077286;28;20583;-62
2023/12/11 01:29:46;;;;;;;26.50;6.40;;;9.70;99.90;;;;;;5077578;28;20457;-61
2023/12/11 01:32:14;;;;;;;18.50;6.20;;;9.70;99.90;;;;;;5077102;28;20464;-61
2023/12/11 01:34:41;;;;;;;22.90;6.97;;;9.70;99.90;;;;;;5077530;28;20552;-61
2023/12/11 01:37:09;;;;;;;21.17;6.10;;;9.70;99.90;;;;;;5077327;28;20523;-62
2023/12/11 01:39:37;;;;;;;19.23;5.77;;;9.70;99.90;;;;;;5077573;28;20563;-60
2023/12/11 01:42:05;;;;;;;21.33;6.70;;;9.70;99.90;;;;;;5077408;28;20958;-61
2023/12/11 01:44:35;;;;;;;17.17;5.40;;;9.70;99.90;;;;;;5077302;28;20728;-61
2023/12/11 01:47:03;;;;;;;33.23;7.17;;;9.70;99.90;;;;;;5081262;28;20850;-65
2023/12/11 01:49:30;;;;;;;19.20;4.97;;;9.70;99.90;;;;;;5081315;28;20457;-60
2023/12/11 01:51:58;;;;;;;18.57;5.43;;;9.70;99.90;;;;;;5081470;28;20510;-61
2023/12/11 01:54:26;;;;;;;22.90;6.60;;;9.70;99.90;;;;;;5081078;28;20461;-62
2023/12/11 01:56:54;;;;;;;24.03;6.10;;;9.70;99.90;;;;;;5081278;28;20461;-65
2023/12/11 01:59:22;;;;;;;19.63;6.80;;;9.70;99.90;;;;;;5081553;28;20544;-61
2023/12/11 02:01:50;;;;;;;20.90;5.87;;;9.70;99.90;;;;;;5080950;28;20514;-61
2023/12/11 02:04:17;;;;;;;23.97;6.80;;;9.70;99.90;;;;;;5080957;28;20457;-61
2023/12/11 02:06:44;;;;;;;22.30;6.63;;;9.70;99.90;;;;;;5080867;28;20489;-62
2023/12/11 02:09:12;;;;;;;20.53;6.17;;;9.80;99.90;;;;;;5080732;28;20513;-62
2023/12/11 02:11:39;;;;;;;18.80;5.50;;;9.80;99.90;;;;;;5081162;28;20925;-63
2023/12/11 02:14:08;;;;;;;18.87;6.60;;;9.80;99.90;;;;;;5080588;28;20465;-62
2023/12/11 02:16:36;;;;;;;20.10;6.53;;;9.80;99.90;;;;;;5080426;28;20453;-61
2023/12/11 02:19:03;;;;;;;18.67;6.50;;;9.80;99.90;;;;;;5081203;28;20511;-61
2023/12/11 02:21:30;;;;;;;22.50;6.03;;;9.80;99.90;;;;;;5081122;28;20514;-61
2023/12/11 02:24:04;;;;;;;16.07;5.20;;;9.80;99.90;;;;;;5080072;28;20526;-61
2023/12/11 02:26:33;;;;;;;14.67;4.90;;;9.80;99.90;;;;;;5080223;28;20536;-62
2023/12/11 02:29:00;;;;;;;25.50;5.30;;;9.80;99.90;;;;;;5080325;28;20547;-61
2023/12/11 02:31:27;;;;;;;14.90;4.00;;;9.90;99.90;;;;;;5080746;28;20792;-62
2023/12/11 02:33:54;;;;;;;16.53;5.83;;;9.80;99.90;;;;;;5080234;28;20522;-62
2023/12/11 02:36:22;;;;;;;15.83;5.20;;;9.80;1.00;;;;;;5080492;28;20507;-61
2023/12/11 02:38:49;;;;;;;16.47;6.37;;;9.90;99.90;;;;;;5080414;28;20461;-63
2023/12/11 02:41:16;;;;;;;22.30;5.80;;;9.80;1.00;;;;;;5080294;28;20810;-61
2023/12/11 02:43:45;;;;;;;22.30;7.00;;;9.80;99.90;;;;;;5080484;28;20492;-62
2023/12/11 02:46:12;;;;;;;20.57;5.63;;;9.80;1.00;;;;;;5079867;28;20528;-60
2023/12/11 02:48:40;;;;;;;22.30;5.47;;;9.80;1.00;;;;;;5080232;28;20474;-61
2023/12/11 02:51:07;;;;;;;17.13;5.53;;;9.80;1.00;;;;;;5080467;28;20453;-61
2023/12/11 02:53:35;;;;;;;17.67;5.27;;;9.80;99.90;;;;;;5080284;28;20457;-62
2023/12/11 02:56:02;;;;;;;22.20;5.40;;;9.80;99.90;;;;;;5079760;28;20840;-62
2023/12/11 02:58:29;;;;;;;18.00;5.13;;;9.90;99.90;;;;;;5079446;28;20453;-60
2023/12/11 03:00:58;;;;;;;23.63;5.50;;;9.90;99.90;;;;;;5079800;28;20560;-63
2023/12/11 03:03:25;;;;;;;23.63;5.93;;;9.90;48.20;;;;;;5079488;28;20464;-62
2023/12/11 03:05:53;;;;;;;18.80;6.00;;;9.90;99.90;;;;;;5080309;28;20461;-62
2023/12/11 03:08:20;;;;;;;18.27;4.40;;;9.90;1.00;;;;;;5079508;28;20583;-62
2023/12/11 03:10:47;;;;;;;26.67;5.70;;;9.90;1.00;;;;;;5079671;28;20804;-62
2023/12/11 03:13:14;;;;;;;15.90;4.90;;;9.80;99.90;;;;;;5079901;28;20461;-61
2023/12/11 03:15:42;;;;;;;18.73;5.60;;;9.90;99.90;;;;;;5080274;28;20457;-62
2023/12/11 03:18:11;;;;;;;20.37;5.83;;;9.80;99.90;;;;;;5079452;28;20464;-61
2023/12/11 03:20:39;;;;;;;19.20;5.40;;;9.80;99.90;;;;;;5079801;28;20457;-62
2023/12/11 03:23:06;;;;;;;20.80;5.27;;;9.80;99.90;;;;;;5079634;28;20497;-61
2023/12/11 03:25:33;;;;;;;23.43;6.23;;;9.70;99.90;;;;;;5079653;28;20457;-63
2023/12/11 03:28:00;;;;;;;15.80;6.30;;;9.70;99.90;;;;;;5079486;28;20493;-62
2023/12/11 03:30:28;;;;;;;19.47;6.10;;;9.70;99.90;;;;;;5079216;28;20489;-62
2023/12/11 03:32:55;;;;;;;16.70;5.17;;;9.70;99.90;;;;;;5078978;28;20823;-63
2023/12/11 03:35:24;;;;;;;23.93;6.43;;;9.70;99.90;;;;;;5079483;28;20484;-62
2023/12/11 03:37:52;;;;;;;22.43;7.03;;;9.70;99.90;;;;;;5079814;28;20457;-62
2023/12/11 03:40:19;;;;;;;17.87;5.37;;;9.80;1.00;;;;;;5079237;28;20502;-60
2023/12/11 03:42:46;;;;;;;22.70;6.63;;;9.70;99.90;;;;;;5079194;28;20457;-61
2023/12/11 03:45:14;;;;;;;17.47;6.10;;;9.60;1.00;;;;;;5079286;28;20904;-61
2023/12/11 03:47:41;;;;;;;24.10;6.10;;;9.50;1.00;;;;;;5079146;28;20946;-63
2023/12/11 03:50:09;;;;;;;22.07;5.90;;;9.50;1.00;;;;;;5078759;28;20457;-62
2023/12/11 03:52:38;;;;;;;22.87;5.87;;;9.50;1.00;;;;;;5079386;28;20488;-63
2023/12/11 03:55:06;;;;;;;17.90;4.97;;;9.50;99.90;;;;;;5079467;28;20457;-63
2023/12/11 03:57:34;;;;;;;19.60;5.00;;;9.50;1.00;;;;;;5079037;28;20739;-62
2023/12/11 04:00:02;;;;;;;19.97;6.17;;;9.50;91.90;;;;;;5078912;28;20518;-62
2023/12/11 04:02:29;;;;;;;29.93;5.87;;;9.60;1.00;;;;;;5078885;28;20791;-61
2023/12/11 04:04:56;;;;;;;15.53;4.43;;;9.60;1.00;;;;;;5079022;28;20453;-60
2023/12/11 04:07:23;;;;;;;19.80;5.23;;;9.60;1.00;;;;;;5078611;28;20858;-61
2023/12/11 04:09:52;;;;;;;23.30;5.70;;;9.60;1.00;;;;;;5078969;28;20759;-61
2023/12/11 04:12:19;;;;;;;23.17;5.60;;;9.70;1.00;;;;;;5078470;28;20454;-61
2023/12/11 04:14:46;;;;;;;22.20;5.20;;;9.70;1.00;;;;;;5078470;28;20559;-60
2023/12/11 04:17:14;;;;;;;22.50;5.50;;;9.60;1.00;;;;;;5078473;28;20454;-62
2023/12/11 04:19:42;;;;;;;19.70;6.10;;;9.70;1.00;;;;;;5078827;28;20508;-62
2023/12/11 04:22:09;;;;;;;20.07;4.63;;;9.70;99.90;;;;;;5078352;28;20506;-63
2023/12/11 04:24:36;;;;;;;19.47;5.37;;;9.70;99.90;;;;;;5079010;28;20442;-62
2023/12/11 04:27:05;;;;;;;17.17;6.07;;;9.70;99.90;;;;;;5078555;28;21007;-61
2023/12/11 04:29:33;;;;;;;23.67;5.00;;;9.80;99.90;;;;;;5078723;28;20462;-61
2023/12/11 04:32:00;;;;;;;17.23;5.20;;;9.70;99.90;;;;;;5077803;28;20826;-60
2023/12/11 04:34:28;;;;;;;22.03;5.30;;;9.70;1.00;;;;;;5078131;28;20457;-62
2023/12/11 04:36:55;;;;;;;16.50;5.83;;;9.60;1.00;;;;;;5077873;28;21000;-61
2023/12/11 04:39:22;;;;;;;15.93;5.03;;;9.50;99.90;;;;;;5078166;28;20560;-60
2023/12/11 04:41:49;;;;;;;26.57;5.77;;;9.50;99.90;;;;;;5080113;28;20454;-61
2023/12/11 04:44:18;;;;;;;18.63;5.60;;;9.30;1.00;;;;;;5097977;28;20505;-61
2023/12/11 04:46:45;;;;;;;21.30;6.77;;;9.40;1.00;;;;;;5097963;28;20528;-60
2023/12/11 04:49:12;;;;;;;23.97;5.97;;;9.40;99.90;;;;;;5097938;28;20499;-61
2023/12/11 04:51:40;;;;;;;21.00;5.63;;;9.30;99.90;;;;;;5098239;28;20492;-60
2023/12/11 04:54:07;;;;;;;23.30;5.20;;;9.30;1.00;;;;;;5097879;28;20820;-60
2023/12/11 04:56:35;;;;;;;15.50;5.13;;;9.20;1.00;;;;;;5098000;28;20453;-60
2023/12/11 04:59:02;;;;;;;21.00;6.50;;;9.20;1.00;;;;;;5097814;28;20513;-60
2023/12/11 05:01:31;;;;;;;17.10;5.20;;;9.20;1.00;;;;;;5098067;28;20456;-59
2023/12/11 05:03:58;;;;;;;22.83;6.07;;;9.20;1.00;;;;;;5097177;28;20488;-59
2023/12/11 05:06:25;;;;;;;21.23;6.20;;;9.20;1.00;;;;;;5097600;28;20459;-60
2023/12/11 05:08:53;;;;;;;19.70;5.23;;;9.10;99.90;;;;;;5097455;28;20725;-61
2023/12/11 05:11:20;;;;;;;26.60;5.13;;;9.10;1.00;;;;;;5097760;28;20431;-60
2023/12/11 05:13:47;;;;;;;16.80;4.97;;;9.10;1.00;;;;;;5098020;28;20884;-60
2023/12/11 05:16:14;;;;;;;14.37;4.83;;;9.10;99.90;;;;;;5097676;28;20496;-61
2023/12/11 05:18:43;;;;;;;12.77;4.90;;;9.10;1.00;;;;;;5097293;28;20453;-60
2023/12/11 05:21:11;;;;;;;25.70;5.23;;;9.00;99.90;;;;;;5097542;28;20465;-60
2023/12/11 05:23:38;;;;;;;25.67;6.33;;;9.00;99.90;;;;;;5097598;28;20496;-61
2023/12/11 05:26:06;;;;;;;16.23;5.87;;;9.00;99.90;;;;;;5097215;28;20460;-61
2023/12/11 05:28:33;;;;;;;23.23;4.83;;;9.10;99.90;;;;;;5090195;28;20539;-59
2023/12/11 05:31:00;;;;;;;18.10;4.53;;;9.10;41.90;;;;;;5076494;28;20491;-61
2023/12/11 05:33:28;;;;;;;15.80;4.33;;;9.10;84.80;;;;;;5076761;28;20458;-60
2023/12/11 05:35:56;;;;;;;22.40;5.50;;;9.10;1.00;;;;;;5075832;28;20453;-64
2023/12/11 05:38:24;;;;;;;13.60;3.90;;;9.10;1.00;;;;;;5076017;28;20528;-60
2023/12/11 05:40:51;;;;;;;14.10;4.63;;;9.10;99.90;;;;;;5076258;28;20463;-61
2023/12/11 05:43:19;;;;;;;18.23;4.97;;;9.10;1.00;;;;;;5076806;28;20457;-63
2023/12/11 05:45:46;;;;;;;15.80;5.10;;;9.10;1.00;;;;;;5076587;28;20887;-63
2023/12/11 05:48:14;;;;;;;21.97;5.43;;;9.10;99.90;;;;;;5075771;28;20922;-63
2023/12/11 05:50:41;;;;;;;19.53;5.07;;;9.10;99.90;;;;;;5076839;28;20468;-63
2023/12/11 05:53:10;;;;;;;22.53;4.70;;;9.10;99.90;;;;;;5076795;28;20496;-63
2023/12/11 05:55:37;;;;;;;17.37;4.87;;;9.10;99.90;;;;;;5077098;28;20465;-64
2023/12/11 05:58:04;;;;;;;23.63;5.80;;;9.10;99.90;;;;;;5076677;28;20523;-62
2023/12/11 06:00:32;;;;;;;15.83;4.70;;;9.10;1.00;;;;;;5076734;28;20453;-62
2023/12/11 06:02:59;;;;;;;23.47;4.90;;;9.10;1.00;;;;;;5076969;28;20457;-63
2023/12/11 06:05:26;;;;;;;14.03;4.20;;;9.10;1.00;;;;;;5077521;28;20453;-64
2023/12/11 06:07:54;;;;;;;12.50;3.87;;;9.10;99.90;;;;;;5076063;28;20493;-63
2023/12/11 06:10:22;;;;;;;16.47;4.27;;;9.10;99.90;;;;;;5076556;28;20494;-67
2023/12/11 06:12:50;;;;;;;17.80;5.30;;;9.20;4.30;;;;;;5075818;28;20466;-60
2023/12/11 06:15:17;;;;;;;15.43;4.43;;;9.20;1.00;;;;;;5075762;28;20959;-63
2023/12/11 06:17:44;;;;;;;21.10;4.73;;;9.20;1.00;;;;;;5076340;28;20489;-64
2023/12/11 06:20:12;;;;;;;15.70;5.23;;;9.20;1.00;;;;;;5075083;28;20853;-62
2023/12/11 06:22:39;;;;;;;13.83;3.90;;;9.20;1.00;;;;;;5076712;28;20502;-62
2023/12/11 06:25:07;;;;;;;12.93;3.67;;;9.20;1.00;;;;;;5076279;28;20457;-62
2023/12/11 06:27:36;;;;;;;13.97;4.77;;;9.20;99.90;;;;;;5075377;28;20471;-61
2023/12/11 06:30:05;;;;;;;12.77;3.17;;;9.20;99.90;;;;;;5076420;28;20464;-63
2023/12/11 06:32:33;;;;;;;10.43;3.70;;;9.20;99.90;;;;;;5077921;28;20457;-64
2023/12/11 06:35:00;;;;;;;11.77;3.70;;;9.20;99.90;;;;;;5080057;28;20774;-62
2023/12/11 06:37:27;;;;;;;15.20;3.57;;;9.20;99.90;;;;;;5080343;28;20750;-63
2023/12/11 06:39:54;;;;;;;13.30;3.63;;;9.20;99.90;;;;;;5080160;28;20493;-62
2023/12/11 06:42:22;;;;;;;12.90;5.30;;;9.20;99.90;;;;;;5079569;28;20553;-66
2023/12/11 06:44:50;;;;;;;11.20;3.57;;;9.20;99.90;;;;;;5079672;28;20484;-67
2023/12/11 06:47:18;;;;;;;13.60;3.70;;;9.20;99.90;;;;;;5079481;28;20496;-67
2023/12/11 06:49:46;;;;;;;14.53;4.63;;;9.20;99.90;;;;;;5079931;28;20457;-67
2023/12/11 06:52:15;;;;;;;13.40;4.80;;;9.20;99.90;;;;;;5079223;28;20784;-66
2023/12/11 06:54:42;;;;;;;15.33;4.70;;;9.20;99.90;;;;;;5079725;28;20461;-66
2023/12/11 06:57:11;;;;;;;12.90;4.07;;;9.20;99.90;;;;;;5079528;28;20797;-66
2023/12/11 06:59:38;;;;;;;18.10;4.00;;;9.20;99.90;;;;;;5079063;28;20461;-67
2023/12/11 07:02:07;;;;;;;14.07;4.17;;;9.20;99.90;;;;;;5079236;28;20805;-69
2023/12/11 07:04:34;;;;;;;14.90;4.40;;;9.20;99.90;;;;;;5079502;28;20878;-65
2023/12/11 07:07:02;;;;;;;15.93;4.50;;;9.20;99.90;;;;;;5079382;28;20465;-66
2023/12/11 07:09:31;;;;;;;14.13;4.50;;;9.20;99.90;;;;;;5079345;28;20894;-65
2023/12/11 07:11:58;;;;;;;15.83;3.83;;;9.30;60.00;;;;;;5079074;28;20518;-65
2023/12/11 07:14:25;;;;;;;12.80;3.97;;;9.30;96.80;;;;;;5078875;28;20454;-65
2023/12/11 07:16:53;;;;;;;12.90;4.13;;;9.30;14.70;;;;;;5078957;28;20465;-65
2023/12/11 07:19:21;;;;;;;17.30;5.33;;;9.30;99.90;;;;;;5078808;28;20453;-67
2023/12/11 07:21:48;;;;;;;9.63;4.20;;;9.30;99.90;;;;;;5079089;28;20544;-67
2023/12/11 07:24:16;;;;;;;12.47;4.40;;;9.30;1.00;;;;;;5078342;28;20519;-65
2023/12/11 07:26:43;;;;;;;20.10;4.80;;;9.20;32.30;;;;;;5077375;28;20556;-67
2023/12/11 07:29:11;;;;;;;17.47;5.03;;;9.20;1.00;;;;;;5075561;28;20892;-69
2023/12/11 07:31:39;;;;;;;15.70;4.80;;;9.30;3.50;;;;;;5077314;28;20699;-67
2023/12/11 07:34:07;;;;;;;18.87;4.27;;;9.30;16.10;;;;;;5079388;28;20464;-68
2023/12/11 07:36:35;;;;;;;11.97;3.77;;;9.20;1.00;;;;;;5079080;28;20585;-68
2023/12/11 07:39:03;;;;;;;10.93;4.50;;;9.30;99.90;;;;;;5078535;28;20552;-65
2023/12/11 07:41:31;;;;;;;12.83;3.73;;;9.30;99.90;;;;;;5078022;28;20483;-67
2023/12/11 07:43:58;;;;;;;16.67;4.47;;;9.30;32.10;;;;;;5079380;28;20486;-67
2023/12/11 07:46:25;;;;;;;18.73;5.00;;;9.30;27.90;;;;;;5080962;28;20779;-68
2023/12/11 07:48:53;;;;;;;13.13;4.20;;;9.30;17.20;;;;;;5081212;28;20501;-68
2023/12/11 07:51:23;;;;;;;16.90;4.80;;;9.30;14.50;;;;;;5080783;28;20511;-67
2023/12/11 07:53:52;;;;;;;13.93;4.57;;;9.30;1.00;;;;;;5080167;28;20468;-67
2023/12/11 07:56:20;;;;;;;16.93;4.40;;;9.30;1.00;;;;;;5077686;28;20457;-67
2023/12/11 07:58:51;;;;;;;17.53;4.70;;;9.40;1.00;;;;;;5076972;28;20446;-67
2023/12/11 08:01:18;;;;;;;18.30;4.50;;;9.40;1.00;;;;;;5076583;28;20752;-69
2023/12/11 08:03:45;;;;;;;16.07;4.27;;;9.40;1.00;;;;;;5078687;28;20867;-69
2023/12/11 08:06:13;;;;;;;12.47;4.73;;;9.40;1.00;;;;;;5077835;28;20462;-68
2023/12/11 08:08:43;;;;;;;14.23;4.47;;;9.40;1.00;;;;;;5077786;28;20926;-71
2023/12/11 08:11:20;;;;;;;15.60;4.50;;;9.40;1.00;;;;;;5077118;28;20761;-65
2023/12/11 08:13:48;;;;;;;17.63;4.80;;;9.40;1.00;;;;;;5078474;28;20556;-66
2023/12/11 08:16:16;;;;;;;19.70;4.77;;;9.40;1.00;;;;;;5080046;28;20481;-66
2023/12/11 08:18:44;;;;;;;21.37;5.30;;;9.40;1.00;;;;;;5078628;28;20489;-68
2023/12/11 08:21:11;;;;;;;23.83;6.50;;;9.50;1.00;;;;;;5078666;28;20556;-63
2023/12/11 08:23:39;;;;;;;15.20;6.90;;;9.50;1.00;;;;;;5078659;28;20463;-65
2023/12/11 08:26:07;;;;;;;18.40;9.00;;;9.40;72.30;;;;;;5077313;28;20833;-63
2023/12/11 08:28:37;;;;;;;18.97;5.70;;;9.40;99.90;;;;;;5076916;28;20524;-66
2023/12/11 08:31:05;;;;;;;21.57;5.07;;;9.30;99.90;;;;;;5077462;28;20519;-67
2023/12/11 08:33:32;;;;;;;21.37;5.10;;;9.30;99.90;;;;;;5078063;28;20497;-64
2023/12/11 08:35:59;;;;;;;16.60;4.77;;;9.30;1.00;;;;;;5077310;28;20544;-63
2023/12/11 08:38:27;;;;;;;28.30;5.57;;;9.30;99.90;;;;;;5077719;28;20844;-64
2023/12/11 08:40:55;;;;;;;22.00;6.17;;;9.30;1.00;;;;;;5077780;28;20522;-64
2023/12/11 08:43:22;;;;;;;18.37;4.93;;;9.30;22.30;;;;;;5077156;28;20552;-63
2023/12/11 08:45:51;;;;;;;20.33;4.87;;;9.20;99.90;;;;;;5077941;28;20458;-64
2023/12/11 08:48:19;;;;;;;16.33;5.37;;;9.30;99.90;;;;;;5076582;28;20551;-63
2023/12/11 08:50:47;;;;;;;18.53;5.33;;;9.20;99.90;;;;;;5075827;28;20528;-66
2023/12/11 08:53:15;;;;;;;19.07;5.63;;;9.10;99.90;;;;;;5076005;28;20908;-62
2023/12/11 08:55:42;;;;;;;12.17;4.10;;;9.10;1.00;;;;;;5076794;28;20458;-61
2023/12/11 08:58:10;;;;;;;26.03;5.57;;;9.00;1.00;;;;;;5077300;28;20473;-65
2023/12/11 09:00:37;;;;;;;20.73;5.90;;;9.00;1.00;;;;;;5075949;28;20457;-65
2023/12/11 09:03:06;;;;;;;19.93;4.50;;;9.00;99.90;;;;;;5076486;28;20909;-65
2023/12/11 09:05:33;;;;;;;18.37;5.53;;;9.00;1.00;;;;;;5076613;28;20461;-64
2023/12/11 09:08:00;;;;;;;14.83;4.77;;;9.00;54.30;;;;;;5076707;28;21017;-65
2023/12/11 09:10:28;;;;;;;16.00;4.47;;;9.00;99.90;;;;;;5078005;28;20489;-65
2023/12/11 09:12:55;;;;;;;23.40;5.10;;;9.10;1.00;;;;;;5077656;28;20453;-67
2023/12/11 09:15:22;;;;;;;16.10;4.60;;;9.10;7.50;;;;;;5078445;28;20800;-71
2023/12/11 09:17:50;;;;;;;18.93;5.07;;;9.10;99.90;;;;;;5079578;28;20518;-68
2023/12/11 09:20:19;;;;;;;16.77;5.03;;;9.10;99.90;;;;;;5080337;28;20485;-68
2023/12/11 09:22:46;;;;;;;17.47;6.03;;;9.10;99.90;;;;;;5078055;28;20786;-73
2023/12/11 09:25:13;;;;;;;12.17;3.93;;;9.10;99.90;;;;;;5077900;28;20539;-66
2023/12/11 09:27:41;;;;;;;18.37;4.53;;;9.10;39.80;;;;;;5077105;28;20489;-67
2023/12/11 09:30:10;;;;;;;17.17;4.70;;;9.20;7.00;;;;;;5076820;28;20462;-69
2023/12/11 09:32:39;;;;;;;20.60;4.70;;;9.20;10.10;;;;;;5076530;28;20465;-69
2023/12/11 09:35:10;;;;;;;8.20;4.07;;;9.20;1.00;;;;;;5076493;28;20508;-68
2023/12/11 09:37:42;;;;;;;20.10;4.47;;;9.20;99.90;;;;;;5076646;28;20485;-68
2023/12/11 09:40:12;;;;;;;20.07;5.20;;;9.20;99.90;;;;;;5075508;28;20515;-68
2023/12/11 09:42:41;;;;;;;12.10;6.40;;;9.30;1.00;;;;;;5075139;28;20464;-68
2023/12/11 09:45:10;;;;;;;18.43;5.33;;;9.30;99.90;;;;;;5075026;28;20481;-66
2023/12/11 09:47:43;;;;;;;14.27;5.10;;;9.30;99.90;;;;;;5075926;28;20461;-67
2023/12/11 09:50:10;;;;;;;14.20;4.30;;;9.30;1.00;;;;;;5076853;28;20548;-66
2023/12/11 09:52:41;;;;;;;16.40;4.90;;;9.30;1.00;;;;;;5076655;28;20493;-65
2023/12/11 09:55:09;;;;;;;12.77;4.43;;;9.30;87.70;;;;;;5076729;28;20762;-65
2023/12/11 09:57:38;;;;;;;16.97;4.57;;;9.30;2.50;;;;;;5074662;28;20544;-67
2023/12/11 10:00:07;;;;;;;14.80;4.73;;;9.30;99.90;;;;;;5070771;28;20535;-68
2023/12/11 10:02:35;;;;;;;11.57;3.97;;;9.30;92.80;;;;;;5068306;28;20483;-64
2023/12/11 10:05:03;;;;;;;12.50;4.57;;;9.30;96.50;;;;;;5066505;28;20526;-65
2023/12/11 10:07:32;;;;;;;15.67;5.63;;;9.20;99.90;;;;;;5077804;28;20481;-64
2023/12/11 10:10:16;;;;;;;11.77;4.80;;;9.20;99.90;;;;;;5078957;28;21068;-66
2023/12/11 10:12:44;;;;;;;14.33;5.13;;;9.20;99.90;;;;;;5080048;28;20483;-65
2023/12/11 10:15:11;;;;;;;12.47;4.10;;;9.20;1.00;;;;;;5079032;28;20469;-70
2023/12/11 10:17:38;;;;;;;18.53;6.27;;;9.20;99.90;;;;;;5080625;28;20812;-65
2023/12/11 10:20:16;;;;;;;15.53;4.80;;;9.10;99.90;;;;;;5080508;28;20503;-64
2023/12/11 10:22:43;;;;;;;26.03;5.70;;;9.20;99.90;;;;;;5080347;28;20460;-66
2023/12/11 10:25:13;;;;;;;18.70;6.27;;;9.10;99.90;;;;;;5079181;28;20536;-65
2023/12/11 10:27:40;;;;;;;21.00;5.53;;;9.10;99.90;;;;;;5079635;28;20510;-64
2023/12/11 10:30:11;;;;;;;12.17;4.77;;;9.20;17.50;;;;;;5080008;28;20489;-65
2023/12/11 10:32:38;;;;;;;12.17;4.17;;;9.20;1.00;;;;;;5080203;28;20526;-65
2023/12/11 10:35:07;;;;;;;17.13;4.80;;;9.10;99.90;;;;;;5079430;28;20457;-74
2023/12/11 10:37:35;;;;;;;18.03;5.17;;;9.10;99.90;;;;;;5079746;28;20767;-66
2023/12/11 10:40:04;;;;;;;17.67;4.80;;;9.10;99.90;;;;;;5079480;28;20738;-64
2023/12/11 10:42:33;;;;;;;12.47;4.60;;;9.20;1.00;;;;;;5079621;28;20472;-65
2023/12/11 10:45:01;;;;;;;8.90;4.30;;;9.20;1.00;;;;;;5079233;28;20470;-65
2023/12/11 10:47:30;;;;;;;13.63;5.23;;;9.20;1.00;;;;;;5079193;28;20464;-66
2023/12/11 10:50:02;;;;;;;12.80;5.10;;;9.20;99.90;;;;;;5079696;28;21007;-66
2023/12/11 10:52:29;;;;;;;15.77;4.83;;;9.20;99.90;;;;;;5079536;28;20457;-71
2023/12/11 10:54:57;;;;;;;12.23;5.30;;;9.20;1.00;;;;;;5080146;28;20544;-67
2023/12/11 10:57:25;;;;;;;18.77;6.93;;;9.10;1.00;;;;;;5081143;28;20759;-64
2023/12/11 10:59:54;;;;;;;9.77;4.67;;;9.00;99.90;;;;;;5080336;28;20458;-65
2023/12/11 11:02:25;;;;;;;14.30;5.37;;;9.00;1.00;;;;;;5080076;28;20784;-63
2023/12/11 11:04:53;;;;;;;13.13;4.10;;;9.00;99.90;;;;;;5078894;28;20461;-68
2023/12/11 11:07:26;;;;;;;15.23;5.10;;;9.00;99.90;;;;;;5077966;28;20479;-63
2023/12/11 11:10:03;;;;;;;18.93;4.90;;;8.90;99.90;;;;;;5078468;28;20489;-66
2023/12/11 11:12:39;;;;;;;11.27;5.10;;;8.90;1.00;;;;;;5078656;28;20799;-66
2023/12/11 11:15:10;;;;;;;10.77;4.90;;;8.90;1.00;;;;;;5078786;28;20452;-65
2023/12/11 11:17:59;;;;;;;19.00;4.80;;;8.90;1.00;;;;;;5078094;28;20504;-63
2023/12/11 11:20:27;;;;;;;14.40;5.57;;;8.90;99.90;;;;;;5079273;28;20454;-63
2023/12/11 11:23:22;;;;;;;16.97;5.00;;;8.80;99.90;;;;;;5079534;28;20453;-64
2023/12/11 11:25:53;;;;;;;17.60;6.00;;;8.70;99.90;;;;;;5079009;28;20461;-64
2023/12/11 11:28:40;;;;;;;12.83;4.77;;;8.70;99.90;;;;;;5079214;28;20500;-65
2023/12/11 11:31:09;;;;;;;12.67;5.03;;;8.70;99.90;;;;;;5078524;28;20457;-65
2023/12/11 11:33:47;;;;;;;18.43;5.73;;;8.70;99.90;;;;;;5077387;28;20957;-65
2023/12/11 11:36:18;;;;;;;10.63;4.47;;;8.70;99.90;;;;;;5077798;28;20464;-63
2023/12/11 11:38:52;;;;;;;16.10;4.60;;;8.70;99.90;;;;;;5079344;28;20924;-68
2023/12/11 11:41:27;;;;;;;19.13;5.80;;;8.70;99.90;;;;;;5078263;28;20503;-65
2023/12/11 11:44:05;;;;;;;10.77;4.43;;;8.70;99.90;;;;;;5079187;28;20464;-65
2023/12/11 11:46:55;;;;;;;12.93;4.20;;;8.80;99.90;;;;;;5078306;28;20451;-67
2023/12/11 11:49:33;;;;;;;12.93;4.67;;;8.90;99.90;;;;;;5078163;28;20490;-67
2023/12/11 11:52:04;;;;;;;15.50;4.47;;;9.00;39.40;;;;;;5076532;28;20466;-66
2023/12/11 11:54:33;;;;;;;12.20;4.20;;;9.10;1.00;;;;;;5075932;28;20455;-67
2023/12/11 11:57:00;;;;;;;11.63;3.83;;;9.10;99.90;;;;;;5075673;28;20437;-67
2023/12/11 11:59:28;;;;;;;10.40;4.20;;;9.10;1.00;;;;;;5075656;28;20459;-68
2023/12/11 12:01:58;;;;;;;15.83;4.30;;;9.10;99.90;;;;;;5074767;28;20440;-68
2023/12/11 12:04:29;;;;;;;7.63;3.63;;;9.10;99.90;;;;;;5076346;28;20458;-67
2023/12/11 12:06:58;;;;;;;10.90;3.80;;;9.10;1.00;;;;;;5078876;28;20507;-65
2023/12/11 12:09:25;;;;;;;11.13;5.13;;;9.20;99.90;;;;;;5084690;28;20565;-66
2023/12/11 12:11:53;;;;;;;7.03;4.30;;;9.10;99.90;;;;;;5088772;28;20476;-64
2023/12/11 12:14:20;;;;;;;13.60;4.37;;;9.10;99.90;;;;;;5087640;28;20465;-66
2023/12/11 12:16:48;;;;;;;9.63;4.40;;;9.20;99.90;;;;;;5087420;28;20453;-65
2023/12/11 12:19:17;;;;;;;11.33;3.80;;;9.10;99.90;;;;;;5083003;28;20441;-65
2023/12/11 12:21:54;;;;;;;9.10;3.77;;;9.10;1.00;;;;;;5083555;28;20454;-64
2023/12/11 12:24:21;;;;;;;11.40;3.77;;;9.20;99.90;;;;;;5085046;28;20465;-64
2023/12/11 12:26:53;;;;;;;9.70;3.20;;;9.20;1.00;;;;;;5084886;28;20496;-64
2023/12/11 12:29:21;;;;;;;11.17;3.10;;;9.30;1.00;;;;;;5085093;28;20533;-65
2023/12/11 12:31:48;;;;;;;7.00;3.37;;;9.20;99.90;;;;;;5079149;28;20461;-65
2023/12/11 12:34:17;;;;;;;8.47;3.37;;;9.10;1.00;;;;;;5078333;28;20436;-65
2023/12/11 12:36:45;;;;;;;5.43;2.30;;;8.80;99.90;;;;;;5078834;28;20535;-65
2023/12/11 12:39:13;;;;;;;8.83;2.77;;;8.60;99.90;;;;;;5080818;28;20817;-64
2023/12/11 12:41:42;;;;;;;8.03;3.17;;;8.50;1.00;;;;;;5078904;28;20453;-64
2023/12/11 12:44:09;;;;;;;4.00;2.23;;;8.40;1.00;;;;;;5080949;28;20457;-65
2023/12/11 12:46:40;;;;;;;4.77;2.80;;;8.40;99.90;;;;;;5084174;28;20465;-66
2023/12/11 12:49:08;;;;;;;5.73;2.30;;;8.40;1.00;;;;;;5082513;28;20489;-66
2023/12/11 12:51:47;;;;;;;6.43;2.40;;;8.30;1.00;;;;;;5087586;28;20461;-66
2023/12/11 12:54:14;;;;;;;3.63;2.10;;;8.20;1.00;;;;;;5085988;28;20487;-66
2023/12/11 12:56:42;;;;;;;5.70;2.47;;;8.10;49.00;;;;;;5085907;28;20457;-65